createdAt,value
2018-04-12T00:00:57.496Z,0.00
2018-04-12T00:01:57.491Z,0.00
2018-04-12T00:02:57.485Z,0.00
2018-04-12T00:03:57.481Z,0.00
2018-04-12T00:04:57.479Z,0.00
2018-04-12T00:05:57.467Z,0.00
2018-04-12T00:06:57.460Z,0.00
2018-04-12T00:07:57.459Z,0.00
2018-04-12T00:08:57.450Z,0.00
2018-04-12T00:09:57.441Z,0.00
2018-04-12T00:10:57.435Z,0.00
2018-04-12T00:11:57.431Z,0.00
2018-04-12T00:12:57.426Z,0.00
2018-04-12T00:13:57.416Z,0.00
2018-04-12T00:14:57.413Z,0.00
2018-04-12T00:15:57.412Z,0.00
2018-04-12T00:16:57.405Z,0.00
2018-04-12T00:17:57.400Z,0.00
2018-04-12T00:18:57.390Z,0.00
2018-04-12T00:19:57.385Z,0.00
2018-04-12T00:20:57.410Z,0.00
2018-04-12T00:21:57.371Z,0.00
2018-04-12T00:22:57.366Z,0.00
2018-04-12T00:23:57.363Z,0.00
2018-04-12T00:24:57.353Z,0.00
2018-04-12T00:25:57.353Z,0.00
2018-04-12T00:26:57.343Z,0.00
2018-04-12T00:27:57.340Z,0.00
2018-04-12T00:28:57.331Z,0.00
2018-04-12T00:29:57.323Z,0.00
2018-04-12T00:30:57.319Z,0.00
2018-04-12T00:31:57.313Z,0.00
2018-04-12T00:32:57.316Z,0.00
2018-04-12T00:33:57.305Z,0.00
2018-04-12T00:34:57.295Z,0.00
2018-04-12T00:35:57.291Z,0.00
2018-04-12T00:36:57.285Z,0.00
2018-04-12T00:37:57.280Z,0.00
2018-04-12T00:38:57.273Z,0.00
2018-04-12T00:39:57.267Z,0.00
2018-04-12T00:40:57.277Z,0.00
2018-04-12T00:41:57.256Z,0.00
2018-04-12T00:42:57.249Z,0.00
2018-04-12T00:43:57.259Z,0.00
2018-04-12T00:44:57.240Z,0.00
2018-04-12T00:45:57.233Z,0.00
2018-04-12T00:46:57.226Z,0.00
2018-04-12T00:47:57.225Z,0.00
2018-04-12T00:48:57.218Z,0.00
2018-04-12T00:49:57.212Z,0.00
2018-04-12T00:50:57.255Z,0.00
2018-04-12T00:51:57.203Z,0.00
2018-04-12T00:52:57.192Z,0.00
2018-04-12T00:53:57.191Z,0.00
2018-04-12T00:54:57.182Z,0.00
2018-04-12T00:55:57.177Z,0.00
2018-04-12T00:56:57.164Z,0.00
2018-04-12T00:57:57.160Z,0.00
2018-04-12T00:58:57.155Z,0.00
2018-04-12T00:59:57.155Z,0.00
2018-04-12T01:00:57.159Z,0.00
2018-04-12T01:01:57.140Z,0.00
2018-04-12T01:02:57.135Z,0.00
2018-04-12T01:03:57.128Z,0.00
2018-04-12T01:04:57.126Z,0.00
2018-04-12T01:05:57.116Z,0.00
2018-04-12T01:06:57.113Z,0.00
2018-04-12T01:07:57.106Z,0.00
2018-04-12T01:08:57.105Z,0.00
2018-04-12T01:09:57.096Z,0.00
2018-04-12T01:10:57.089Z,0.00
2018-04-12T01:11:57.083Z,0.00
2018-04-12T01:12:57.087Z,0.00
2018-04-12T01:13:57.073Z,0.00
2018-04-12T01:14:57.065Z,0.00
2018-04-12T01:15:57.060Z,0.00
2018-04-12T01:16:57.062Z,0.00
2018-04-12T01:17:57.047Z,0.00
2018-04-12T01:18:57.042Z,0.00
2018-04-12T01:19:57.035Z,0.00
2018-04-12T01:20:57.030Z,0.00
2018-04-12T01:21:57.027Z,0.00
2018-04-12T01:22:57.017Z,0.00
2018-04-12T01:23:57.012Z,0.00
2018-04-12T01:24:57.009Z,0.00
2018-04-12T01:25:56.999Z,0.00
2018-04-12T01:26:56.993Z,0.00
2018-04-12T01:27:56.989Z,0.00
2018-04-12T01:28:56.985Z,0.00
2018-04-12T01:29:56.975Z,0.00
2018-04-12T01:30:56.970Z,0.00
2018-04-12T01:31:56.965Z,0.00
2018-04-12T01:32:56.961Z,0.00
2018-04-12T01:33:56.953Z,0.00
2018-04-12T01:34:56.947Z,0.00
2018-04-12T01:35:56.942Z,0.00
2018-04-12T01:36:56.936Z,0.00
2018-04-12T01:37:56.931Z,0.00
2018-04-12T01:38:56.925Z,0.00
2018-04-12T01:39:56.922Z,0.00
2018-04-12T01:40:56.922Z,0.00
2018-04-12T01:41:56.905Z,0.00
2018-04-12T01:42:56.904Z,0.00
2018-04-12T01:43:56.895Z,0.00
2018-04-12T01:44:56.888Z,0.00
2018-04-12T01:45:56.882Z,0.00
2018-04-12T01:46:56.879Z,0.00
2018-04-12T01:47:56.871Z,0.00
2018-04-12T01:48:56.871Z,0.00
2018-04-12T01:49:56.860Z,0.00
2018-04-12T01:50:56.854Z,0.00
2018-04-12T01:51:56.847Z,0.00
2018-04-12T01:52:56.839Z,0.00
2018-04-12T01:53:56.837Z,0.00
2018-04-12T01:54:56.833Z,0.00
2018-04-12T01:55:56.835Z,0.00
2018-04-12T01:56:56.825Z,0.00
2018-04-12T01:57:56.811Z,0.00
2018-04-12T01:58:56.810Z,0.00
2018-04-12T01:59:56.801Z,0.00
2018-04-12T02:00:56.794Z,0.00
2018-04-12T02:01:56.792Z,0.00
2018-04-12T02:02:56.786Z,0.00
2018-04-12T02:03:56.776Z,0.00
2018-04-12T02:04:56.775Z,0.00
2018-04-12T02:05:56.769Z,0.00
2018-04-12T02:06:56.757Z,0.00
2018-04-12T02:07:56.753Z,0.00
2018-04-12T02:08:56.754Z,0.00
2018-04-12T02:09:56.748Z,0.00
2018-04-12T02:10:56.743Z,0.00
2018-04-12T02:11:56.733Z,0.00
2018-04-12T02:12:56.730Z,0.00
2018-04-12T02:13:56.721Z,0.00
2018-04-12T02:14:56.712Z,0.00
2018-04-12T02:15:56.708Z,0.00
2018-04-12T02:16:56.704Z,0.00
2018-04-12T02:17:56.701Z,0.00
2018-04-12T02:18:56.693Z,0.00
2018-04-12T02:19:56.683Z,0.00
2018-04-12T02:20:56.680Z,0.00
2018-04-12T02:21:56.674Z,0.00
2018-04-12T02:22:56.667Z,0.00
2018-04-12T02:23:56.666Z,0.00
2018-04-12T02:24:56.654Z,0.00
2018-04-12T02:25:56.653Z,0.00
2018-04-12T02:26:56.642Z,0.00
2018-04-12T02:27:56.636Z,0.00
2018-04-12T02:28:56.665Z,0.00
2018-04-12T02:29:56.626Z,0.00
2018-04-12T02:30:56.620Z,0.00
2018-04-12T02:31:56.614Z,0.00
2018-04-12T02:32:56.610Z,0.00
2018-04-12T02:33:56.613Z,0.00
2018-04-12T02:34:56.627Z,0.00
2018-04-12T02:35:56.589Z,0.00
2018-04-12T02:36:56.591Z,0.00
2018-04-12T02:37:56.581Z,0.00
2018-04-12T02:38:56.573Z,0.00
2018-04-12T02:39:56.568Z,0.00
2018-04-12T02:40:56.566Z,0.00
2018-04-12T02:41:56.560Z,0.00
2018-04-12T02:42:56.550Z,0.00
2018-04-12T02:43:56.546Z,0.00
2018-04-12T02:44:56.538Z,0.00
2018-04-12T02:45:56.532Z,0.00
2018-04-12T02:46:56.527Z,0.00
2018-04-12T02:47:56.525Z,0.00
2018-04-12T02:48:56.517Z,0.00
2018-04-12T02:49:56.514Z,0.00
2018-04-12T02:50:56.504Z,0.00
2018-04-12T02:51:56.501Z,0.00
2018-04-12T02:52:56.494Z,0.00
2018-04-12T02:53:56.488Z,0.00
2018-04-12T02:54:56.489Z,0.00
2018-04-12T02:55:56.474Z,0.00
2018-04-12T02:56:56.509Z,0.00
2018-04-12T02:57:56.490Z,0.00
2018-04-12T02:58:56.485Z,0.00
2018-04-12T02:59:56.449Z,0.00
2018-04-12T03:00:56.447Z,0.00
2018-04-12T03:01:56.457Z,0.00
2018-04-12T03:02:56.433Z,0.00
2018-04-12T03:03:56.430Z,0.00
2018-04-12T03:04:56.422Z,0.00
2018-04-12T03:05:56.424Z,0.00
2018-04-12T03:06:56.409Z,0.00
2018-04-12T03:07:56.406Z,0.00
2018-04-12T03:08:56.397Z,0.00
2018-04-12T03:09:56.393Z,0.00
2018-04-12T03:10:56.388Z,0.00
2018-04-12T03:11:56.382Z,0.00
2018-04-12T03:12:56.379Z,0.00
2018-04-12T03:13:56.369Z,0.00
2018-04-12T03:14:56.362Z,0.00
2018-04-12T03:15:56.359Z,0.00
2018-04-12T03:16:56.350Z,0.00
2018-04-12T03:17:56.346Z,0.00
2018-04-12T03:18:56.336Z,0.00
2018-04-12T03:19:56.335Z,0.00
2018-04-12T03:20:56.324Z,0.00
2018-04-12T03:21:56.322Z,0.00
2018-04-12T03:22:56.315Z,0.00
2018-04-12T03:23:56.313Z,0.00
2018-04-12T03:24:56.309Z,0.00
2018-04-12T03:25:56.301Z,0.00
2018-04-12T03:26:56.292Z,0.00
2018-04-12T03:27:56.286Z,0.00
2018-04-12T03:28:56.279Z,0.00
2018-04-12T03:29:56.287Z,0.00
2018-04-12T03:30:56.270Z,0.00
2018-04-12T03:31:56.267Z,0.00
2018-04-12T03:32:56.260Z,0.00
2018-04-12T03:33:56.253Z,0.00
2018-04-12T03:34:56.243Z,0.00
2018-04-12T03:35:56.232Z,0.00
2018-04-12T03:36:56.234Z,0.00
2018-04-12T03:37:56.226Z,0.00
2018-04-12T03:38:56.219Z,0.00
2018-04-12T03:39:56.221Z,0.00
2018-04-12T03:40:56.212Z,0.00
2018-04-12T03:41:56.203Z,0.00
2018-04-12T03:42:56.196Z,0.00
2018-04-12T03:43:56.193Z,0.00
2018-04-12T03:44:56.186Z,0.00
2018-04-12T03:45:56.179Z,0.00
2018-04-12T03:46:56.177Z,0.00
2018-04-12T03:47:56.168Z,0.00
2018-04-12T03:48:56.164Z,0.00
2018-04-12T03:49:56.155Z,0.00
2018-04-12T03:50:56.149Z,4.00
2018-04-12T03:51:56.144Z,4.00
2018-04-12T03:52:56.140Z,4.00
2018-04-12T03:53:56.133Z,0.00
2018-04-12T03:54:56.125Z,0.00
2018-04-12T03:55:56.121Z,0.00
2018-04-12T03:56:56.122Z,0.00
2018-04-12T03:57:56.113Z,0.00
2018-04-12T03:58:56.099Z,0.00
2018-04-12T03:59:56.094Z,0.00
2018-04-12T04:00:56.087Z,0.00
2018-04-12T04:01:56.082Z,0.00
2018-04-12T04:02:56.077Z,0.00
2018-04-12T04:03:56.101Z,0.00
2018-04-12T04:04:56.059Z,0.00
2018-04-12T04:05:56.055Z,0.00
2018-04-12T04:06:56.045Z,0.00
2018-04-12T04:07:56.038Z,0.00
2018-04-12T04:08:56.032Z,0.00
2018-04-12T04:09:56.029Z,0.00
2018-04-12T04:10:56.018Z,0.00
2018-04-12T04:11:56.010Z,0.00
2018-04-12T04:12:56.006Z,0.00
2018-04-12T04:13:55.997Z,0.00
2018-04-12T04:14:55.988Z,0.00
2018-04-12T04:15:55.984Z,0.00
2018-04-12T04:16:55.982Z,0.00
2018-04-12T04:17:55.971Z,0.00
2018-04-12T04:18:55.960Z,0.00
2018-04-12T04:19:55.956Z,0.00
2018-04-12T04:20:55.946Z,0.00
2018-04-12T04:21:55.938Z,0.00
2018-04-12T04:22:55.934Z,0.00
2018-04-12T04:23:55.933Z,0.00
2018-04-12T04:24:55.919Z,0.00
2018-04-12T04:25:55.910Z,0.00
2018-04-12T04:26:55.904Z,0.00
2018-04-12T04:27:55.895Z,4.00
2018-04-12T04:28:55.889Z,4.00
2018-04-12T04:29:55.883Z,4.00
2018-04-12T04:30:55.876Z,4.00
2018-04-12T04:31:55.867Z,4.00
2018-04-12T04:32:55.861Z,4.00
2018-04-12T04:33:55.850Z,4.00
2018-04-12T04:34:55.844Z,4.00
2018-04-12T04:35:55.840Z,4.00
2018-04-12T04:36:55.834Z,8.00
2018-04-12T04:37:55.825Z,4.00
2018-04-12T04:38:55.815Z,8.00
2018-04-12T04:39:55.867Z,8.00
2018-04-12T04:40:55.800Z,8.00
2018-04-12T04:41:55.794Z,8.00
2018-04-12T04:42:55.786Z,12.00
2018-04-12T04:43:55.779Z,12.00
2018-04-12T04:44:55.777Z,12.00
2018-04-12T04:45:55.764Z,16.00
2018-04-12T04:46:55.753Z,16.00
2018-04-12T04:47:55.749Z,20.00
2018-04-12T04:48:55.742Z,24.00
2018-04-12T04:49:55.740Z,24.00
2018-04-12T04:50:55.728Z,28.00
2018-04-12T04:51:55.722Z,28.00
2018-04-12T04:52:55.713Z,36.00
2018-04-12T04:53:55.708Z,40.00
2018-04-12T04:54:55.706Z,44.00
2018-04-12T04:55:55.702Z,48.00
2018-04-12T04:56:55.694Z,52.00
2018-04-12T04:57:55.684Z,60.00
2018-04-12T04:58:55.665Z,64.00
2018-04-12T04:59:55.661Z,72.00
2018-04-12T05:00:55.667Z,76.00
2018-04-12T05:01:55.648Z,80.00
2018-04-12T05:02:55.645Z,88.00
2018-04-12T05:03:55.631Z,88.00
2018-04-12T05:04:55.623Z,96.00
2018-04-12T05:05:55.622Z,100.00
2018-04-12T05:06:55.609Z,104.00
2018-04-12T05:07:55.607Z,112.00
2018-04-12T05:08:55.594Z,120.00
2018-04-12T05:09:55.585Z,124.00
2018-04-12T05:10:55.581Z,136.00
2018-04-12T05:11:55.578Z,140.00
2018-04-12T05:12:55.565Z,148.00
2018-04-12T05:13:55.558Z,156.00
2018-04-12T05:14:55.556Z,164.00
2018-04-12T05:15:55.543Z,172.00
2018-04-12T05:16:55.536Z,180.00
2018-04-12T05:17:55.527Z,184.00
2018-04-12T05:18:55.520Z,192.00
2018-04-12T05:19:55.513Z,200.00
2018-04-12T05:20:55.507Z,208.00
2018-04-12T05:21:55.498Z,216.00
2018-04-12T05:22:55.491Z,216.00
2018-04-12T05:23:55.483Z,220.00
2018-04-12T05:24:55.476Z,220.00
2018-04-12T05:25:55.467Z,220.00
2018-04-12T05:26:55.464Z,224.00
2018-04-12T05:27:55.462Z,232.00
2018-04-12T05:28:55.445Z,240.00
2018-04-12T05:29:55.441Z,248.00
2018-04-12T05:30:55.431Z,260.00
2018-04-12T05:31:55.444Z,272.00
2018-04-12T05:32:55.422Z,288.00
2018-04-12T05:33:55.411Z,308.00
2018-04-12T05:34:55.418Z,324.00
2018-04-12T05:35:55.392Z,340.00
2018-04-12T05:36:55.390Z,356.00
2018-04-12T05:37:55.385Z,376.00
2018-04-12T05:38:55.370Z,388.00
2018-04-12T05:39:55.367Z,400.00
2018-04-12T05:40:55.369Z,412.00
2018-04-12T05:41:55.356Z,424.00
2018-04-12T05:42:55.344Z,436.00
2018-04-12T05:43:55.340Z,456.00
2018-04-12T05:44:55.328Z,476.00
2018-04-12T05:45:55.322Z,496.00
2018-04-12T05:46:55.314Z,508.00
2018-04-12T05:47:55.305Z,532.00
2018-04-12T05:48:55.309Z,544.00
2018-04-12T05:49:55.293Z,564.00
2018-04-12T05:50:55.285Z,568.00
2018-04-12T05:51:55.274Z,552.00
2018-04-12T05:52:55.279Z,572.00
2018-04-12T05:53:55.261Z,600.00
2018-04-12T05:54:55.251Z,588.00
2018-04-12T05:55:55.248Z,552.00
2018-04-12T05:56:55.241Z,516.00
2018-04-12T05:57:55.229Z,488.00
2018-04-12T05:58:55.221Z,468.00
2018-04-12T05:59:55.217Z,460.00
2018-04-12T06:00:55.216Z,460.00
2018-04-12T06:01:55.204Z,456.00
2018-04-12T06:02:55.198Z,468.00
2018-04-12T06:03:55.185Z,488.00
2018-04-12T06:04:55.178Z,532.00
2018-04-12T06:05:55.171Z,588.00
2018-04-12T06:06:55.165Z,596.00
2018-04-12T06:07:55.156Z,608.00
2018-04-12T06:08:55.151Z,624.00
2018-04-12T06:09:55.144Z,660.00
2018-04-12T06:10:55.134Z,692.00
2018-04-12T06:11:55.126Z,772.00
2018-04-12T06:12:55.120Z,828.00
2018-04-12T06:13:55.118Z,864.00
2018-04-12T06:14:55.113Z,880.00
2018-04-12T06:15:55.099Z,896.00
2018-04-12T06:16:55.094Z,920.00
2018-04-12T06:17:55.081Z,928.00
2018-04-12T06:18:55.074Z,912.00
2018-04-12T06:19:55.072Z,796.00
2018-04-12T06:20:55.069Z,712.00
2018-04-12T06:21:55.056Z,668.00
2018-04-12T06:22:55.047Z,528.00
2018-04-12T06:23:55.040Z,540.00
2018-04-12T06:24:55.035Z,520.00
2018-04-12T06:25:55.025Z,512.00
2018-04-12T06:26:55.021Z,560.00
2018-04-12T06:27:55.010Z,684.00
2018-04-12T06:28:55.002Z,724.00
2018-04-12T06:29:54.997Z,696.00
2018-04-12T06:30:54.987Z,736.00
2018-04-12T06:31:54.983Z,628.00
2018-04-12T06:32:54.978Z,648.00
2018-04-12T06:33:55.016Z,664.00
2018-04-12T06:34:54.963Z,724.00
2018-04-12T06:35:54.971Z,692.00
2018-04-12T06:36:54.943Z,684.00
2018-04-12T06:37:54.937Z,720.00
2018-04-12T06:38:54.929Z,796.00
2018-04-12T06:39:54.935Z,904.00
2018-04-12T06:40:54.915Z,1024.00
2018-04-12T06:41:54.908Z,1144.00
2018-04-12T06:42:54.900Z,1220.00
2018-04-12T06:43:54.892Z,1312.00
2018-04-12T06:44:54.882Z,1432.00
2018-04-12T06:45:54.880Z,1448.00
2018-04-12T06:46:54.871Z,888.00
2018-04-12T06:47:54.866Z,948.00
2018-04-12T06:48:54.856Z,1492.00
2018-04-12T06:49:54.849Z,1540.00
2018-04-12T06:50:54.844Z,1576.00
2018-04-12T06:51:54.837Z,1344.00
2018-04-12T06:52:54.829Z,1576.00
2018-04-12T06:53:54.821Z,1544.00
2018-04-12T06:54:54.812Z,1500.00
2018-04-12T06:55:54.806Z,1420.00
2018-04-12T06:56:54.797Z,1116.00
2018-04-12T06:57:54.792Z,1444.00
2018-04-12T06:58:54.783Z,1396.00
2018-04-12T06:59:54.775Z,1508.00
2018-04-12T07:00:54.768Z,1652.00
2018-04-12T07:01:54.767Z,1688.00
2018-04-12T07:02:54.752Z,1712.00
2018-04-12T07:03:54.745Z,1732.00
2018-04-12T07:04:54.742Z,1748.00
2018-04-12T07:05:54.737Z,1764.00
2018-04-12T07:06:54.725Z,1768.00
2018-04-12T07:07:54.718Z,1784.00
2018-04-12T07:08:54.710Z,1720.00
2018-04-12T07:09:54.708Z,1796.00
2018-04-12T07:10:54.699Z,1860.00
2018-04-12T07:11:54.690Z,1884.00
2018-04-12T07:12:54.679Z,1912.00
2018-04-12T07:13:54.675Z,1944.00
2018-04-12T07:14:54.670Z,1960.00
2018-04-12T07:15:54.660Z,1980.00
2018-04-12T07:16:54.654Z,2000.00
2018-04-12T07:17:54.649Z,2036.00
2018-04-12T07:18:54.641Z,2056.00
2018-04-12T07:19:54.634Z,2076.00
2018-04-12T07:20:54.626Z,2092.00
2018-04-12T07:21:54.621Z,2112.00
2018-04-12T07:22:54.612Z,2120.00
2018-04-12T07:23:54.612Z,2140.00
2018-04-12T07:24:54.606Z,2156.00
2018-04-12T07:25:54.591Z,2176.00
2018-04-12T07:26:54.582Z,2200.00
2018-04-12T07:27:54.584Z,2220.00
2018-04-12T07:28:54.573Z,2244.00
2018-04-12T07:29:54.565Z,2264.00
2018-04-12T07:30:54.556Z,2252.00
2018-04-12T07:31:54.551Z,2296.00
2018-04-12T07:32:54.547Z,2328.00
2018-04-12T07:33:54.536Z,2356.00
2018-04-12T07:34:54.535Z,2376.00
2018-04-12T07:35:54.522Z,2404.00
2018-04-12T07:36:54.518Z,2428.00
2018-04-12T07:37:54.531Z,2444.00
2018-04-12T07:38:54.504Z,2460.00
2018-04-12T07:39:54.498Z,2492.00
2018-04-12T07:40:54.490Z,2508.00
2018-04-12T07:41:54.482Z,2540.00
2018-04-12T07:42:54.481Z,2560.00
2018-04-12T07:43:54.470Z,2592.00
2018-04-12T07:44:54.464Z,2608.00
2018-04-12T07:45:54.460Z,2624.00
2018-04-12T07:46:54.449Z,2644.00
2018-04-12T07:47:54.442Z,2672.00
2018-04-12T07:48:54.440Z,2688.00
2018-04-12T07:49:54.432Z,2712.00
2018-04-12T07:50:54.429Z,2732.00
2018-04-12T07:51:54.416Z,2752.00
2018-04-12T07:52:54.407Z,2780.00
2018-04-12T07:53:54.411Z,2808.00
2018-04-12T07:54:54.401Z,2828.00
2018-04-12T07:55:54.390Z,2856.00
2018-04-12T07:56:54.385Z,2880.00
2018-04-12T07:57:54.377Z,2896.00
2018-04-12T07:58:54.371Z,2912.00
2018-04-12T07:59:54.365Z,2908.00
2018-04-12T08:00:54.357Z,2920.00
2018-04-12T08:01:54.356Z,2852.00
2018-04-12T08:02:54.345Z,2872.00
2018-04-12T08:03:54.344Z,2800.00
2018-04-12T08:04:54.332Z,2912.00
2018-04-12T08:05:54.333Z,2948.00
2018-04-12T08:06:54.321Z,2876.00
2018-04-12T08:07:54.314Z,2856.00
2018-04-12T08:08:54.311Z,2872.00
2018-04-12T08:09:54.314Z,2888.00
2018-04-12T08:10:54.294Z,2888.00
2018-04-12T08:11:54.287Z,2796.00
2018-04-12T08:12:54.281Z,2920.00
2018-04-12T08:13:54.276Z,2932.00
2018-04-12T08:14:54.269Z,2932.00
2018-04-12T08:15:54.265Z,3084.00
2018-04-12T08:16:54.258Z,3036.00
2018-04-12T08:17:54.257Z,3040.00
2018-04-12T08:18:54.247Z,3032.00
2018-04-12T08:19:54.239Z,3064.00
2018-04-12T08:20:54.233Z,3040.00
2018-04-12T08:21:54.229Z,3140.00
2018-04-12T08:22:54.216Z,3152.00
2018-04-12T08:23:54.214Z,3196.00
2018-04-12T08:24:54.216Z,3232.00
2018-04-12T08:25:54.201Z,3284.00
2018-04-12T08:26:54.194Z,3340.00
2018-04-12T08:27:54.190Z,3348.00
2018-04-12T08:28:54.218Z,3360.00
2018-04-12T08:29:54.179Z,3384.00
2018-04-12T08:30:54.169Z,3392.00
2018-04-12T08:31:54.163Z,3420.00
2018-04-12T08:32:54.162Z,3432.00
2018-04-12T08:33:54.153Z,3460.00
2018-04-12T08:34:54.150Z,3472.00
2018-04-12T08:35:54.141Z,3504.00
2018-04-12T08:36:54.142Z,3536.00
2018-04-12T08:37:54.129Z,3572.00
2018-04-12T08:38:54.124Z,3584.00
2018-04-12T08:39:54.116Z,3596.00
2018-04-12T08:40:54.112Z,3612.00
2018-04-12T08:41:54.107Z,3624.00
2018-04-12T08:42:54.098Z,3648.00
2018-04-12T08:43:54.123Z,3664.00
2018-04-12T08:44:54.088Z,3680.00
2018-04-12T08:45:54.095Z,3696.00
2018-04-12T08:46:54.080Z,3712.00
2018-04-12T08:47:54.068Z,3728.00
2018-04-12T08:48:54.065Z,3744.00
2018-04-12T08:49:54.062Z,3756.00
2018-04-12T08:50:54.053Z,3764.00
2018-04-12T08:51:54.046Z,3788.00
2018-04-12T08:52:54.043Z,3804.00
2018-04-12T08:53:54.040Z,3828.00
2018-04-12T08:54:54.028Z,3840.00
2018-04-12T08:55:54.087Z,3864.00
2018-04-12T08:56:54.023Z,3884.00
2018-04-12T08:57:54.014Z,3908.00
2018-04-12T08:58:54.008Z,3928.00
2018-04-12T08:59:54.009Z,3956.00
2018-04-12T09:00:53.996Z,3984.00
2018-04-12T09:01:53.998Z,4008.00
2018-04-12T09:02:53.988Z,4040.00
2018-04-12T09:03:53.979Z,4080.00
2018-04-12T09:04:53.976Z,4116.00
2018-04-12T09:05:53.969Z,4164.00
2018-04-12T09:06:53.959Z,4224.00
2018-04-12T09:07:53.954Z,4268.00
2018-04-12T09:08:53.954Z,4328.00
2018-04-12T09:09:53.950Z,4392.00
2018-04-12T09:10:53.949Z,4448.00
2018-04-12T09:11:53.933Z,4508.00
2018-04-12T09:12:53.931Z,4548.00
2018-04-12T09:13:53.922Z,4616.00
2018-04-12T09:14:53.916Z,4680.00
2018-04-12T09:15:53.912Z,4616.00
2018-04-12T09:16:53.908Z,4724.00
2018-04-12T09:17:53.918Z,4632.00
2018-04-12T09:18:53.899Z,4780.00
2018-04-12T09:19:53.891Z,4636.00
2018-04-12T09:20:53.889Z,4696.00
2018-04-12T09:21:53.885Z,4600.00
2018-04-12T09:22:53.874Z,4620.00
2018-04-12T09:23:53.864Z,4552.00
2018-04-12T09:24:53.861Z,4692.00
2018-04-12T09:25:53.859Z,4620.00
2018-04-12T09:26:53.853Z,4552.00
2018-04-12T09:27:53.852Z,4712.00
2018-04-12T09:28:53.848Z,4524.00
2018-04-12T09:29:53.837Z,4616.00
2018-04-12T09:30:53.832Z,4608.00
2018-04-12T09:31:53.828Z,4012.00
2018-04-12T09:32:53.822Z,3792.00
2018-04-12T09:33:53.817Z,3688.00
2018-04-12T09:34:53.813Z,3016.00
2018-04-12T09:35:53.854Z,2636.00
2018-04-12T09:36:53.806Z,2104.00
2018-04-12T09:37:53.798Z,2008.00
2018-04-12T09:38:53.790Z,1976.00
2018-04-12T09:39:53.787Z,2136.00
2018-04-12T09:40:53.781Z,2068.00
2018-04-12T09:41:53.774Z,2108.00
2018-04-12T09:42:53.776Z,2124.00
2018-04-12T09:43:53.767Z,1856.00
2018-04-12T09:44:53.758Z,1680.00
2018-04-12T09:45:53.751Z,1608.00
2018-04-12T09:46:53.747Z,1552.00
2018-04-12T09:47:53.744Z,1532.00
2018-04-12T09:48:53.741Z,1452.00
2018-04-12T09:49:53.733Z,1436.00
2018-04-12T09:50:53.730Z,1440.00
2018-04-12T09:51:53.723Z,1456.00
2018-04-12T09:52:53.716Z,1476.00
2018-04-12T09:53:53.710Z,1500.00
2018-04-12T09:54:53.703Z,1536.00
2018-04-12T09:55:53.697Z,1576.00
2018-04-12T09:56:53.693Z,1620.00
2018-04-12T09:57:53.686Z,1664.00
2018-04-12T09:58:53.685Z,1708.00
2018-04-12T09:59:53.735Z,1776.00
2018-04-12T10:00:53.670Z,1836.00
2018-04-12T10:01:53.664Z,2012.00
2018-04-12T10:02:53.658Z,2624.00
2018-04-12T10:03:53.652Z,2692.00
2018-04-12T10:04:53.651Z,2324.00
2018-04-12T10:05:53.645Z,2208.00
2018-04-12T10:06:53.638Z,3216.00
2018-04-12T10:07:53.630Z,3124.00
2018-04-12T10:08:53.673Z,2824.00
2018-04-12T10:09:53.621Z,2956.00
2018-04-12T10:10:53.613Z,2664.00
2018-04-12T10:11:53.612Z,2664.00
2018-04-12T10:12:53.601Z,2632.00
2018-04-12T10:13:53.600Z,2520.00
2018-04-12T10:14:53.591Z,2560.00
2018-04-12T10:15:53.589Z,2416.00
2018-04-12T10:16:53.582Z,2376.00
2018-04-12T10:17:53.574Z,2088.00
2018-04-12T10:18:53.569Z,2072.00
2018-04-12T10:19:53.569Z,2032.00
2018-04-12T10:20:53.555Z,1996.00
2018-04-12T10:21:53.565Z,1800.00
2018-04-12T10:22:53.550Z,1792.00
2018-04-12T10:23:53.543Z,1924.00
2018-04-12T10:24:53.533Z,1944.00
2018-04-12T10:25:53.555Z,2080.00
2018-04-12T10:26:53.527Z,2216.00
2018-04-12T10:27:53.515Z,2360.00
2018-04-12T10:28:53.510Z,2436.00
2018-04-12T10:29:53.504Z,2264.00
2018-04-12T10:30:53.502Z,2412.00
2018-04-12T10:31:53.492Z,2572.00
2018-04-12T10:32:53.487Z,2584.00
2018-04-12T10:33:53.483Z,2360.00
2018-04-12T10:34:53.474Z,2216.00
2018-04-12T10:35:53.474Z,2544.00
2018-04-12T10:36:53.467Z,2732.00
2018-04-12T10:37:53.460Z,2888.00
2018-04-12T10:38:53.452Z,3092.00
2018-04-12T10:39:53.447Z,2996.00
2018-04-12T10:40:53.442Z,3204.00
2018-04-12T10:41:53.434Z,2724.00
2018-04-12T10:42:53.430Z,2736.00
2018-04-12T10:43:53.424Z,3100.00
2018-04-12T10:44:53.419Z,3020.00
2018-04-12T10:45:53.421Z,2296.00
2018-04-12T10:46:53.412Z,2360.00
2018-04-12T10:47:53.403Z,2764.00
2018-04-12T10:48:53.395Z,3380.00
2018-04-12T10:49:53.389Z,2860.00
2018-04-12T10:50:53.381Z,4056.00
2018-04-12T10:51:53.386Z,3288.00
2018-04-12T10:52:53.371Z,2636.00
2018-04-12T10:53:53.371Z,3200.00
2018-04-12T10:54:53.362Z,2400.00
2018-04-12T10:55:53.356Z,2660.00
2018-04-12T10:56:53.351Z,2516.00
2018-04-12T10:57:53.343Z,2340.00
2018-04-12T10:58:53.338Z,3408.00
2018-04-12T10:59:53.331Z,2528.00
2018-04-12T11:00:53.327Z,2976.00
2018-04-12T11:01:53.321Z,2680.00
2018-04-12T11:02:53.314Z,2516.00
2018-04-12T11:03:53.313Z,2076.00
2018-04-12T11:04:53.307Z,1948.00
2018-04-12T11:05:53.295Z,1308.00
2018-04-12T11:06:53.293Z,1284.00
2018-04-12T11:07:53.287Z,1276.00
2018-04-12T11:08:53.284Z,1332.00
2018-04-12T11:09:53.276Z,1616.00
2018-04-12T11:10:53.274Z,2960.00
2018-04-12T11:11:53.267Z,3524.00
2018-04-12T11:12:53.260Z,3352.00
2018-04-12T11:13:53.253Z,2124.00
2018-04-12T11:14:53.250Z,2620.00
2018-04-12T11:15:53.243Z,3192.00
2018-04-12T11:16:53.238Z,2876.00
2018-04-12T11:17:53.236Z,2752.00
2018-04-12T11:18:53.227Z,3128.00
2018-04-12T11:19:53.221Z,3268.00
2018-04-12T11:20:53.217Z,3120.00
2018-04-12T11:21:53.212Z,2692.00
2018-04-12T11:22:53.204Z,3220.00
2018-04-12T11:23:53.201Z,3084.00
2018-04-12T11:24:53.192Z,3176.00
2018-04-12T11:25:53.186Z,3172.00
2018-04-12T11:26:53.179Z,3140.00
2018-04-12T11:27:53.180Z,3112.00
2018-04-12T11:28:53.170Z,3084.00
2018-04-12T11:29:53.197Z,3080.00
2018-04-12T11:30:53.156Z,3096.00
2018-04-12T11:31:53.153Z,3100.00
2018-04-12T11:32:53.148Z,3024.00
2018-04-12T11:33:53.143Z,2912.00
2018-04-12T11:34:53.138Z,2984.00
2018-04-12T11:35:53.142Z,3020.00
2018-04-12T11:36:53.164Z,3048.00
2018-04-12T11:37:53.121Z,2980.00
2018-04-12T11:38:53.121Z,2788.00
2018-04-12T11:39:53.108Z,2524.00
2018-04-12T11:40:53.104Z,2936.00
2018-04-12T11:41:53.099Z,2952.00
2018-04-12T11:42:53.096Z,2944.00
2018-04-12T11:43:53.098Z,2868.00
2018-04-12T11:44:53.081Z,2696.00
2018-04-12T11:45:53.076Z,2180.00
2018-04-12T11:46:53.116Z,2084.00
2018-04-12T11:47:53.072Z,2680.00
2018-04-12T11:48:53.062Z,2668.00
2018-04-12T11:49:53.079Z,2796.00
2018-04-12T11:50:53.053Z,2788.00
2018-04-12T11:51:53.047Z,2808.00
2018-04-12T11:52:53.042Z,2792.00
2018-04-12T11:53:53.033Z,2760.00
2018-04-12T11:54:53.031Z,2692.00
2018-04-12T11:55:53.051Z,2480.00
2018-04-12T11:56:53.025Z,2228.00
2018-04-12T11:57:53.015Z,2528.00
2018-04-12T11:58:53.008Z,2496.00
2018-04-12T11:59:53.003Z,2660.00
2018-04-12T12:00:52.999Z,2496.00
2018-04-12T12:01:52.992Z,2136.00
2018-04-12T12:02:52.989Z,1508.00
2018-04-12T12:03:52.982Z,2112.00
2018-04-12T12:04:52.974Z,1844.00
2018-04-12T12:05:52.975Z,1624.00
2018-04-12T12:06:52.970Z,1584.00
2018-04-12T12:07:52.959Z,1412.00
2018-04-12T12:08:52.956Z,2008.00
2018-04-12T12:09:52.949Z,1356.00
2018-04-12T12:10:52.943Z,1780.00
2018-04-12T12:11:52.940Z,1516.00
2018-04-12T12:12:52.935Z,2040.00
2018-04-12T12:13:52.929Z,1836.00
2018-04-12T12:14:52.922Z,2008.00
2018-04-12T12:15:52.918Z,1704.00
2018-04-12T12:16:52.910Z,1864.00
2018-04-12T12:17:52.906Z,1648.00
2018-04-12T12:18:52.899Z,1784.00
2018-04-12T12:19:52.893Z,1472.00
2018-04-12T12:20:52.892Z,1232.00
2018-04-12T12:21:52.885Z,1176.00
2018-04-12T12:22:52.882Z,1232.00
2018-04-12T12:23:52.948Z,1248.00
2018-04-12T12:24:52.872Z,1244.00
2018-04-12T12:25:52.858Z,1184.00
2018-04-12T12:26:52.858Z,1208.00
2018-04-12T12:27:52.854Z,1292.00
2018-04-12T12:28:52.879Z,1528.00
2018-04-12T12:29:52.841Z,1728.00
2018-04-12T12:30:52.835Z,1664.00
2018-04-12T12:31:52.834Z,1336.00
2018-04-12T12:32:52.824Z,1320.00
2018-04-12T12:33:52.821Z,1300.00
2018-04-12T12:34:52.812Z,1376.00
2018-04-12T12:35:52.809Z,1196.00